Time;durP1;ratioP1;P1;durP2;ratioP2;P2;SDS_P1;SDS_P2;PMS_P1;PMS_P2;Temp;Humidity;BMP_temperature;BMP_pressure;BME280_temperature;BME280_humidity;BME280_pressure;Samples;Min_cycle;Max_cycle;Signal;HPM_P1;HPM_P2
2022/09/30 00:01:28;;;;;;;;;52.25;43.25;;;;;12.68;53.28;100387.91;5039371;28;45324;-54
2022/09/30 00:03:54;;;;;;;;;53.25;44.50;;;;;12.66;53.14;100392.34;5052802;28;46339;-53
2022/09/30 00:06:19;;;;;;;;;49.50;41.00;;;;;12.66;53.18;100402.03;5039524;28;45381;-53
2022/09/30 00:08:46;;;;;;;;;53.75;42.75;;;;;12.63;53.17;100397.72;5039362;28;45479;-54
2022/09/30 00:11:17;;;;;;;;;52.00;41.50;;;;;12.60;53.51;100400.47;5039373;28;45470;-52
2022/09/30 00:13:45;;;;;;;;;53.00;41.75;;;;;12.60;53.16;100405.72;5046038;28;46177;-53
2022/09/30 00:16:13;;;;;;;;;51.00;43.00;;;;;12.58;53.24;100412.81;5058918;28;45226;-53
2022/09/30 00:18:39;;;;;;;;;53.75;43.00;;;;;12.56;53.21;100419.88;5039510;28;45393;-54
2022/09/30 00:21:07;;;;;;;;;48.25;41.00;;;;;12.54;53.13;100419.06;5039362;28;45308;-53
2022/09/30 00:23:33;;;;;;;;;47.25;39.75;;;;;12.52;53.28;100416.47;5049529;28;46632;-54
2022/09/30 00:26:00;;;;;;;;;49.25;41.50;;;;;12.52;53.30;100412.97;5039250;28;45178;-53
2022/09/30 00:28:26;;;;;;;;;45.00;37.50;;;;;12.49;53.54;100408.66;5038941;28;45254;-54
2022/09/30 00:30:52;;;;;;;;;49.25;38.50;;;;;12.48;53.35;100408.69;5039141;28;45481;-54
2022/09/30 00:33:17;;;;;;;;;49.50;40.50;;;;;12.46;53.40;100407.88;5039011;28;45961;-53
2022/09/30 00:35:42;;;;;;;;;47.50;39.75;;;;;12.44;53.24;100402.63;5037700;28;46010;-54
2022/09/30 00:38:08;;;;;;;;;51.75;40.25;;;;;12.43;53.26;100410.59;5021426;28;45231;-54
2022/09/30 00:40:33;;;;;;;;;46.00;38.00;;;;;12.41;53.37;100405.34;5038798;28;45302;-51
2022/09/30 00:42:59;;;;;;;;;46.00;37.25;;;;;12.39;53.33;100409.81;5038640;28;46295;-53
2022/09/30 00:45:27;;;;;;;;;50.00;41.00;;;;;12.37;53.50;100410.75;5038815;28;45317;-54
2022/09/30 00:48:01;;;;;;;;;51.50;42.00;;;;;12.38;53.49;100410.72;5039185;28;45168;-54
2022/09/30 00:50:41;;;;;;;;;50.50;42.00;;;;;12.34;53.42;100407.28;5038882;28;45478;-54
2022/09/30 00:53:18;;;;;;;;;45.00;38.50;;;;;12.32;53.48;100406.47;5038900;28;45424;-54
2022/09/30 00:55:56;;;;;;;;;51.00;40.50;;;;;12.29;53.79;100406.56;5040774;28;45344;-52
2022/09/30 00:58:29;;;;;;;;;47.25;38.50;;;;;12.30;53.53;100415.31;5041872;28;45351;-54
2022/09/30 01:00:56;;;;;;;;;51.00;40.75;;;;;12.29;53.68;100421.47;5042209;28;45379;-53
2022/09/30 01:03:22;;;;;;;;;50.50;41.25;;;;;12.25;53.63;100415.44;5055649;28;46323;-52
2022/09/30 01:05:50;;;;;;;;;51.75;42.00;;;;;12.25;53.70;100420.72;5058595;28;45228;-53
2022/09/30 01:08:17;;;;;;;;;41.25;35.50;;;;;12.22;53.73;100415.50;5065451;28;45284;-53
2022/09/30 01:10:43;;;;;;;;;48.75;39.00;;;;;12.21;53.80;100421.69;5042141;28;45447;-53
2022/09/30 01:13:09;;;;;;;;;51.75;42.00;;;;;12.19;53.71;100426.16;5041482;28;46373;-51
2022/09/30 01:16:23;;;;;;;;;45.50;39.25;;;;;12.17;53.65;100428.78;5060188;28;45318;-52
2022/09/30 01:19:10;;;;;;;;;50.25;41.00;;;;;12.14;53.83;100425.41;5035426;28;45461;-53
2022/09/30 01:22:03;;;;;;;;;48.50;42.25;;;;;12.11;53.71;100428.09;5045465;28;45254;-53
2022/09/30 01:25:03;;;;;;;;;45.50;37.50;;;;;12.09;53.83;100429.91;5046197;28;45983;-53
2022/09/30 01:27:37;;;;;;;;;47.00;40.00;;;;;12.05;53.93;100431.78;5041591;28;45249;-51
2022/09/30 01:30:18;;;;;;;;;48.25;39.00;;;;;12.04;53.86;100424.75;5023827;28;45443;-53
2022/09/30 01:32:59;;;;;;;;;51.75;43.00;;;;;12.01;53.72;100423.06;5041683;28;45466;-53
2022/09/30 01:35:59;;;;;;;;;51.50;39.75;;;;;12.00;53.86;100415.22;5041717;28;46171;-53
2022/09/30 01:38:29;;;;;;;;;48.50;39.50;;;;;11.97;53.92;100417.91;5037329;28;45455;-54
2022/09/30 01:41:27;;;;;;;;;46.75;36.75;;;;;11.93;53.80;100409.19;5041642;28;45202;-52
2022/09/30 01:44:06;;;;;;;;;49.75;41.50;;;;;11.93;53.89;100411.81;5069541;28;45586;-53
2022/09/30 01:46:35;;;;;;;;;48.00;39.00;;;;;11.93;53.85;100417.09;5050786;28;46298;-54
2022/09/30 01:49:07;;;;;;;;;50.00;40.25;;;;;11.87;54.01;100415.50;5041185;28;45367;-53
2022/09/30 01:52:10;;;;;;;;;54.00;42.75;;;;;11.89;53.93;100428.59;5041519;28;45512;-53
2022/09/30 01:55:16;;;;;;;;;48.25;38.75;;;;;11.86;54.12;100415.50;5041433;28;45321;-53
2022/09/30 01:58:00;;;;;;;;;47.25;40.50;;;;;11.84;54.04;100423.44;5041082;28;45288;-53
2022/09/30 02:00:26;;;;;;;;;47.75;39.25;;;;;11.81;54.07;100430.56;5041025;28;45280;-52
2022/09/30 02:03:00;;;;;;;;;47.75;40.25;;;;;11.81;54.08;100435.81;5052207;28;45346;-52
2022/09/30 02:05:35;;;;;;;;;49.00;39.25;;;;;11.80;54.03;100436.75;5026361;28;45443;-54
2022/09/30 02:08:06;;;;;;;;;49.00;39.25;;;;;11.78;54.13;100435.91;5047879;28;46217;-53
2022/09/30 02:10:43;;;;;;;;;47.25;40.00;;;;;11.77;54.19;100434.16;5041392;28;45598;-54
2022/09/30 02:13:16;;;;;;;;;43.50;37.25;;;;;11.76;54.21;100429.81;5023722;28;45349;-54
2022/09/30 02:15:51;;;;;;;;;51.00;41.75;;;;;11.74;54.09;100429.00;5060455;28;45403;-55
2022/09/30 02:18:22;;;;;;;;;47.75;39.50;;;;;11.74;54.16;100431.63;5043341;28;46204;-53
2022/09/30 02:20:54;;;;;;;;;47.25;40.00;;;;;11.71;54.09;100430.78;5041117;28;45234;-54
2022/09/30 02:23:29;;;;;;;;;48.75;41.00;;;;;11.66;54.14;100419.50;5051457;28;45248;-52
2022/09/30 02:26:06;;;;;;;;;47.75;39.50;;;;;11.67;54.21;100425.63;5040705;28;45401;-52
2022/09/30 02:28:36;;;;;;;;;51.50;41.00;;;;;11.66;54.21;100427.41;5040151;28;46146;-53
2022/09/30 02:31:04;;;;;;;;;45.00;37.75;;;;;11.64;54.25;100416.03;5039126;28;45241;-54
2022/09/30 02:33:40;;;;;;;;;49.00;41.00;;;;;11.62;54.20;100417.84;5061060;28;45309;-53
2022/09/30 02:36:29;;;;;;;;;49.75;41.75;;;;;11.61;54.19;100417.88;5060775;28;45262;-53
2022/09/30 02:39:01;;;;;;;;;43.00;37.50;;;;;11.58;54.28;100415.31;5059813;28;46350;-51
2022/09/30 02:41:32;;;;;;;;;51.75;41.00;;;;;11.56;54.12;100415.38;5060810;28;45165;-52
2022/09/30 02:44:01;;;;;;;;;47.25;39.50;;;;;11.58;54.30;100415.31;5060511;28;45305;-52
2022/09/30 02:46:32;;;;;;;;;45.25;37.50;;;;;11.56;54.07;100407.47;5060687;28;45521;-53
2022/09/30 02:49:18;;;;;;;;;47.25;39.75;;;;;11.54;54.37;100411.91;5060395;28;46398;-53
2022/09/30 02:52:14;;;;;;;;;51.00;41.75;;;;;11.52;54.26;100411.94;5060443;28;45325;-52
2022/09/30 02:54:40;;;;;;;;;52.50;39.50;;;;;11.50;54.21;100416.34;5060736;28;45422;-54
2022/09/30 02:57:30;;;;;;;;;47.00;40.00;;;;;11.48;54.31;100410.28;5056170;28;45401;-53
2022/09/30 02:59:56;;;;;;;;;51.25;40.50;;;;;11.46;54.41;100416.44;5055012;28;46205;-53
2022/09/30 03:02:22;;;;;;;;;47.75;40.00;;;;;11.47;54.34;100426.09;5040603;28;45321;-53
2022/09/30 03:04:49;;;;;;;;;51.50;40.50;;;;;11.45;54.38;100430.53;5040413;28;45348;-54
2022/09/30 03:07:14;;;;;;;;;48.25;38.50;;;;;11.44;54.39;100434.91;5040391;28;45269;-53
2022/09/30 03:09:39;;;;;;;;;47.25;40.25;;;;;11.43;54.30;100427.06;5040118;28;45290;-53
2022/09/30 03:12:08;;;;;;;;;51.50;41.50;;;;;11.42;54.33;100433.22;5040253;28;45372;-54
2022/09/30 03:14:48;;;;;;;;;51.25;40.00;;;;;11.40;54.34;100437.66;5049768;28;45261;-53
2022/09/30 03:17:26;;;;;;;;;52.25;40.75;;;;;11.37;54.42;100439.47;5049661;28;45508;-54
2022/09/30 03:19:58;;;;;;;;;44.00;37.25;;;;;11.37;54.35;100436.81;5040010;28;46258;-52
2022/09/30 03:22:42;;;;;;;;;45.75;38.00;;;;;11.35;54.36;100462.28;5049064;28;45422;-53
2022/09/30 03:25:16;;;;;;;;;46.25;37.00;;;;;11.34;54.50;100459.69;5040180;28;45474;-52
2022/09/30 03:27:50;;;;;;;;;47.50;39.25;;;;;11.32;54.38;100465.00;5039424;28;45407;-54
2022/09/30 03:30:19;;;;;;;;;43.75;37.25;;;;;11.31;54.50;100471.16;5039914;28;45261;-52
2022/09/30 03:32:59;;;;;;;;;50.25;41.50;;;;;11.28;54.55;100467.72;5039723;28;45317;-54
2022/09/30 03:35:24;;;;;;;;;52.25;43.50;;;;;11.30;54.44;100474.69;5039988;28;45229;-53
2022/09/30 03:38:01;;;;;;;;;122.00;107.67;;;;;11.29;54.58;100472.94;5039661;28;45282;-53
2022/09/30 03:41:01;;;;;;;;;53.00;42.25;;;;;11.28;54.44;100475.63;5038816;28;46395;-54
2022/09/30 03:43:38;;;;;;;;;48.75;38.75;;;;;11.27;54.43;100492.28;5025264;28;45349;-53
2022/09/30 03:46:21;;;;;;;;;49.50;38.25;;;;;11.26;54.57;100498.44;5039994;28;45314;-57
2022/09/30 03:48:52;;;;;;;;;50.00;40.25;;;;;11.25;54.58;100494.97;5039571;28;45516;-54
2022/09/30 03:51:19;;;;;;;;;42.75;37.00;;;;;11.21;54.63;100501.19;5032184;28;45398;-53
2022/09/30 03:53:47;;;;;;;;;50.00;40.25;;;;;11.23;54.60;100504.63;5038226;28;45419;-54
2022/09/30 03:56:13;;;;;;;;;49.00;39.25;;;;;11.21;54.58;100503.81;5050728;28;45407;-54
2022/09/30 03:58:43;;;;;;;;;44.25;37.50;;;;;11.20;54.65;100521.34;5026077;28;45429;-51
2022/09/30 04:01:18;;;;;;;;;47.75;40.50;;;;;11.19;54.66;100530.16;5031643;28;46971;-52
2022/09/30 04:03:44;;;;;;;;;48.75;41.00;;;;;11.19;54.47;100527.53;5051600;28;45539;-53
2022/09/30 04:06:12;;;;;;;;;63.75;49.50;;;;;11.19;54.67;100529.28;5039766;28;45296;-54
2022/09/30 04:08:37;;;;;;;;;91.00;78.00;;;;;11.18;54.44;100538.06;5039273;28;45483;-53
2022/09/30 04:11:03;;;;;;;;;55.25;43.50;;;;;11.16;54.69;100540.72;5039418;28;47198;-52
2022/09/30 04:13:29;;;;;;;;;52.50;41.25;;;;;11.16;54.73;100547.75;5039621;28;45355;-51
2022/09/30 04:15:54;;;;;;;;;51.25;41.00;;;;;11.16;54.69;100547.75;5038173;28;45325;-54
2022/09/30 04:18:19;;;;;;;;;46.25;38.50;;;;;11.16;54.63;100553.03;5039184;28;45541;-53
2022/09/30 04:20:45;;;;;;;;;50.25;40.25;;;;;11.16;54.77;100558.28;5062150;28;52935;-53
2022/09/30 04:23:10;;;;;;;;;47.75;41.00;;;;;11.16;54.73;100563.53;5054133;28;45550;-54
2022/09/30 04:25:35;;;;;;;;;47.50;41.00;;;;;11.16;54.65;100563.53;5021802;28;45339;-52
2022/09/30 04:28:01;;;;;;;;;43.75;36.50;;;;;11.16;54.80;100571.44;5038700;28;45615;-53
2022/09/30 04:30:26;;;;;;;;;54.75;45.00;;;;;11.15;54.60;100567.06;5022772;28;46781;-52
2022/09/30 04:32:52;;;;;;;;;52.50;41.75;;;;;11.14;54.60;100563.56;5042644;28;45336;-53
2022/09/30 04:35:17;;;;;;;;;52.00;40.00;;;;;11.15;54.84;100559.19;5042814;28;45297;-53
2022/09/30 04:37:44;;;;;;;;;108.33;97.33;;;;;11.15;54.91;100569.69;5042545;28;45269;-52
2022/09/30 04:40:10;;;;;;;;;56.25;43.50;;;;;11.15;54.89;100573.19;5042509;28;45503;-53
2022/09/30 04:42:38;;;;;;;;;59.00;47.50;;;;;11.13;54.94;100572.38;5042078;28;45373;-54
2022/09/30 04:45:04;;;;;;;;;83.33;71.67;;;;;11.14;54.85;100578.47;5067782;28;45241;-52
2022/09/30 04:47:30;;;;;;;;;81.33;70.00;;;;;11.15;54.97;100588.09;5076683;28;45512;-55
2022/09/30 04:49:56;;;;;;;;;59.00;48.50;;;;;11.13;54.90;100584.63;5041022;28;46805;-54
2022/09/30 04:52:21;;;;;;;;;52.00;42.75;;;;;11.13;54.80;100585.50;5055748;28;45289;-52
2022/09/30 04:54:47;;;;;;;;;51.75;43.50;;;;;11.13;54.79;100592.53;5042504;28;45367;-53
2022/09/30 04:57:12;;;;;;;;;48.75;39.00;;;;;11.10;54.99;100584.69;5042085;28;45451;-54
2022/09/30 04:59:38;;;;;;;;;49.25;39.00;;;;;11.11;54.74;100589.91;5041898;28;46494;-54
2022/09/30 05:02:04;;;;;;;;;48.00;39.75;;;;;11.10;54.94;100596.06;5044116;28;45527;-54
2022/09/30 05:04:30;;;;;;;;;79.67;64.67;;;;;11.09;54.91;100599.59;5062467;28;45470;-54
2022/09/30 05:06:55;;;;;;;;;51.25;41.50;;;;;11.08;54.95;100594.38;5044286;28;45316;-54
2022/09/30 05:09:20;;;;;;;;;47.00;37.25;;;;;11.08;55.01;100603.16;5041811;28;50141;-52
2022/09/30 05:11:46;;;;;;;;;48.25;40.00;;;;;11.04;54.83;100598.81;5073545;28;47349;-53
2022/09/30 05:14:11;;;;;;;;;45.50;37.75;;;;;11.02;54.88;100598.00;5057218;28;52629;-52
2022/09/30 05:16:36;;;;;;;;;46.75;38.00;;;;;10.99;55.07;100596.28;5057445;28;45293;-53
2022/09/30 05:19:02;;;;;;;;;51.00;42.25;;;;;11.02;55.12;100603.25;5041885;28;46133;-50
2022/09/30 05:21:28;;;;;;;;;46.75;38.75;;;;;10.99;55.04;100603.28;5042798;28;45391;-51
2022/09/30 05:23:53;;;;;;;;;50.00;40.00;;;;;10.97;55.17;100608.59;5050439;28;45212;-52
2022/09/30 05:26:19;;;;;;;;;49.50;40.25;;;;;10.96;55.10;100598.09;5060177;28;45476;-52
2022/09/30 05:28:44;;;;;;;;;48.75;39.50;;;;;10.93;54.96;100601.66;5043438;28;45449;-52
2022/09/30 05:31:10;;;;;;;;;44.25;37.00;;;;;10.95;55.14;100620.03;5061522;28;48996;-53
2022/09/30 05:33:36;;;;;;;;;48.25;38.00;;;;;10.94;55.15;100618.28;5062069;28;45312;-53
2022/09/30 05:36:04;;;;;;;;;47.75;40.00;;;;;10.93;55.10;100617.44;5061752;28;45447;-53
2022/09/30 05:38:29;;;;;;;;;49.50;40.25;;;;;10.88;55.13;100614.03;5043654;28;47410;-53
2022/09/30 05:40:55;;;;;;;;;53.00;41.25;;;;;10.90;55.05;100622.72;5060807;28;45365;-49
2022/09/30 05:43:20;;;;;;;;;49.25;40.00;;;;;10.91;55.35;100626.25;5061436;28;45376;-54
2022/09/30 05:45:53;;;;;;;;;48.25;38.00;;;;;10.88;55.28;100633.28;5061699;28;45488;-53
2022/09/30 05:48:19;;;;;;;;;49.50;40.75;;;;;10.87;55.34;100626.28;5061505;28;46470;-54
2022/09/30 05:50:47;;;;;;;;;48.50;39.00;;;;;10.87;55.35;100636.78;5061634;28;45343;-52
2022/09/30 05:53:12;;;;;;;;;53.50;41.25;;;;;10.87;55.22;100638.56;5061457;28;45240;-53
2022/09/30 05:55:37;;;;;;;;;52.50;42.50;;;;;10.85;55.37;100641.19;5061409;28;47859;-50
2022/09/30 05:58:03;;;;;;;;;52.75;41.00;;;;;10.85;55.31;100642.97;5048895;28;50532;-53
2022/09/30 06:00:28;;;;;;;;;54.25;43.25;;;;;10.85;55.30;100650.84;5056905;28;48023;-53
2022/09/30 06:02:53;;;;;;;;;50.00;41.75;;;;;10.84;55.14;100651.75;5052510;28;45398;-52
2022/09/30 06:05:20;;;;;;;;;50.50;40.00;;;;;10.83;55.21;100653.53;5043323;28;45537;-53
2022/09/30 06:07:46;;;;;;;;;53.75;43.00;;;;;10.83;55.22;100657.91;5041079;28;45249;-53
2022/09/30 06:10:11;;;;;;;;;50.00;39.50;;;;;10.82;55.35;100656.19;5050342;28;45618;-52
2022/09/30 06:12:37;;;;;;;;;52.00;43.75;;;;;10.80;55.08;100655.34;5070021;28;45205;-53
2022/09/30 06:15:03;;;;;;;;;48.00;39.75;;;;;10.79;55.34;100661.47;5039623;28;45484;-54
2022/09/30 06:17:29;;;;;;;;;51.50;41.75;;;;;10.79;55.24;100661.47;5052519;28;45835;-53
2022/09/30 06:19:55;;;;;;;;;54.75;43.75;;;;;10.77;55.33;100664.13;5043027;28;45262;-50
2022/09/30 06:22:20;;;;;;;;;52.75;43.00;;;;;10.77;55.27;100671.13;5049430;28;45414;-52
2022/09/30 06:24:46;;;;;;;;;51.75;40.50;;;;;10.78;55.19;100670.25;5042666;28;45475;-56
2022/09/30 06:27:11;;;;;;;;;54.50;42.75;;;;;10.79;55.18;100674.63;5040460;28;49137;-53
2022/09/30 06:29:37;;;;;;;;;52.00;43.50;;;;;10.78;55.17;100675.50;5039680;28;45486;-54
2022/09/30 06:32:03;;;;;;;;;50.50;39.50;;;;;10.76;55.29;100677.31;5039394;28;45339;-53
2022/09/30 06:34:28;;;;;;;;;55.50;44.00;;;;;10.78;55.42;100684.28;5040386;28;45233;-54
2022/09/30 06:36:53;;;;;;;;;52.00;42.75;;;;;10.79;55.27;100693.91;5040704;28;45212;-53
2022/09/30 06:39:19;;;;;;;;;52.25;43.25;;;;;10.80;55.26;100698.25;5022192;28;45305;-52
2022/09/30 06:41:44;;;;;;;;;48.75;41.25;;;;;10.81;55.38;100696.50;5040738;28;45221;-53
2022/09/30 06:44:10;;;;;;;;;51.75;43.00;;;;;10.82;55.36;100699.09;5040151;28;45314;-51
2022/09/30 06:46:35;;;;;;;;;54.25;42.75;;;;;10.84;55.49;100702.59;5040260;28;45534;-51
2022/09/30 06:49:03;;;;;;;;;48.00;38.00;;;;;10.86;55.65;100710.44;5039991;28;45384;-51
2022/09/30 06:51:31;;;;;;;;;50.50;42.50;;;;;10.84;55.30;100704.31;5039783;28;45487;-51
2022/09/30 06:53:59;;;;;;;;;56.00;43.25;;;;;10.89;55.32;100715.63;5037896;28;45274;-53
2022/09/30 06:56:26;;;;;;;;;49.50;40.75;;;;;10.90;55.40;100709.50;5040340;28;46186;-51
2022/09/30 06:58:51;;;;;;;;;53.25;42.00;;;;;10.91;55.61;100700.72;5039735;28;45445;-50
2022/09/30 07:01:17;;;;;;;;;83.33;72.33;;;;;10.94;55.57;100705.91;5040495;28;45585;-50
2022/09/30 07:03:44;;;;;;;;;83.00;75.33;;;;;10.96;55.47;100706.75;5053540;28;45402;-50
2022/09/30 07:06:12;;;;;;;;;66.25;54.00;;;;;10.98;55.59;100707.63;5039979;28;45337;-48
2022/09/30 07:08:38;;;;;;;;;62.75;50.00;;;;;11.00;55.71;100710.22;5038739;28;45278;-49
2022/09/30 07:11:24;;;;;;;;;53.50;45.25;;;;;11.02;55.52;100701.41;5022502;28;45370;-50
2022/09/30 07:13:50;;;;;;;;;58.25;48.50;;;;;11.05;55.62;100711.00;5047740;28;45266;-49
2022/09/30 07:16:17;;;;;;;;;59.00;48.25;;;;;11.07;55.68;100709.22;5058433;28;46145;-49
2022/09/30 07:18:44;;;;;;;;;59.00;47.00;;;;;11.10;55.73;100710.94;5040059;28;45419;-49
2022/09/30 07:21:12;;;;;;;;;13.50;10.00;;;;;11.12;55.89;100710.00;5039989;28;45358;-49
2022/09/30 07:23:41;;;;;;;;;60.50;49.00;;;;;11.12;55.91;100707.38;5050102;28;45581;-50
2022/09/30 07:26:06;;;;;;;;;55.25;46.50;;;;;11.18;55.84;100706.41;5039907;28;47160;-47
2022/09/30 07:28:35;;;;;;;;;56.00;46.50;;;;;11.21;55.75;100711.63;5039584;28;45404;-49
2022/09/30 07:31:06;;;;;;;;;58.75;47.25;;;;;11.23;55.96;100709.81;5039969;28;45233;-49
2022/09/30 07:33:34;;;;;;;;;59.50;47.00;;;;;11.28;55.75;100717.63;5061439;28;45450;-51
2022/09/30 07:36:00;;;;;;;;;51.75;43.50;;;;;11.32;55.80;100711.41;5058188;28;47159;-49
2022/09/30 07:38:28;;;;;;;;;56.25;44.75;;;;;11.35;55.93;100711.38;5039805;28;45360;-49
2022/09/30 07:41:12;;;;;;;;;52.25;42.25;;;;;11.40;55.97;100716.56;5039039;28;45191;-52
2022/09/30 07:43:39;;;;;;;;;51.50;43.25;;;;;11.44;56.03;100723.50;5039406;28;45373;-52
2022/09/30 07:46:07;;;;;;;;;52.25;44.00;;;;;11.48;56.02;100726.06;5054868;28;46184;-52
2022/09/30 07:48:43;;;;;;;;;54.50;42.00;;;;;11.52;55.96;100722.47;5063707;28;45293;-52
2022/09/30 07:51:12;;;;;;;;;51.75;42.50;;;;;11.55;56.11;100719.75;5023568;28;45511;-49
2022/09/30 07:53:38;;;;;;;;;55.25;44.00;;;;;11.62;56.06;100719.66;5039731;28;45543;-48
2022/09/30 07:56:05;;;;;;;;;54.25;44.25;;;;;11.67;56.02;100716.06;5038364;28;46080;-51
2022/09/30 07:58:31;;;;;;;;;51.00;43.50;;;;;11.72;56.02;100721.19;5039022;28;45337;-51
2022/09/30 08:00:56;;;;;;;;;52.50;43.00;;;;;11.76;56.16;100717.63;5039827;28;45230;-48
2022/09/30 08:03:22;;;;;;;;;56.50;47.00;;;;;11.85;56.13;100719.22;5053130;28;46005;-51
2022/09/30 08:05:47;;;;;;;;;54.25;44.25;;;;;11.90;55.91;100716.47;5043004;28;46088;-54
2022/09/30 08:08:14;;;;;;;;;53.75;41.25;;;;;11.97;56.12;100723.41;5043001;28;45254;-52
2022/09/30 08:10:40;;;;;;;;;51.00;42.50;;;;;12.01;56.16;100715.41;5043288;28;45332;-50
2022/09/30 08:13:06;;;;;;;;;54.75;45.25;;;;;12.11;56.19;100725.75;5042673;28;45413;-48
2022/09/30 08:15:31;;;;;;;;;49.75;40.00;;;;;12.10;56.10;100709.09;5060725;28;47030;-52
2022/09/30 08:17:56;;;;;;;;;50.25;42.00;;;;;12.25;56.24;100723.69;5047801;28;45372;-49
2022/09/30 08:20:22;;;;;;;;;47.75;40.00;;;;;12.31;56.00;100726.22;5043047;28;45332;-51
2022/09/30 08:22:51;;;;;;;;;45.75;39.00;;;;;12.39;56.01;100731.31;5052940;28;45380;-52
2022/09/30 08:25:17;;;;;;;;;51.50;42.25;;;;;12.46;56.30;100726.75;5042858;28;45496;-52
2022/09/30 08:27:42;;;;;;;;;53.25;43.75;;;;;12.53;56.13;100728.38;5042325;28;45345;-52
2022/09/30 08:30:08;;;;;;;;;58.75;48.00;;;;;12.60;56.04;100727.31;5042843;28;45298;-50
2022/09/30 08:32:33;;;;;;;;;58.75;48.25;;;;;12.67;56.13;100731.53;5042746;28;45305;-51
2022/09/30 08:34:59;;;;;;;;;49.50;41.25;;;;;12.76;56.04;100726.97;5042573;28;46446;-52
2022/09/30 08:37:24;;;;;;;;;54.75;44.50;;;;;12.86;55.98;100725.84;5042465;28;48532;-52
2022/09/30 08:39:49;;;;;;;;;53.75;42.75;;;;;12.93;56.08;100729.19;5042496;28;45379;-51
2022/09/30 08:42:32;;;;;;;;;49.00;40.50;;;;;13.02;56.32;100726.34;5042444;28;45262;-49
2022/09/30 08:45:45;;;;;;;;;46.50;39.75;;;;;13.09;56.05;100719.13;5042397;28;46553;-49
2022/09/30 08:48:54;;;;;;;;;47.75;39.50;;;;;13.25;55.82;100731.03;4997756;28;45521;-48
2022/09/30 08:51:49;;;;;;;;;48.25;40.25;;;;;13.37;55.78;100731.63;5053477;28;45592;-48
2022/09/30 08:54:18;;;;;;;;;49.75;41.50;;;;;13.51;55.64;100728.66;5042592;28;45471;-49
2022/09/30 08:56:45;;;;;;;;;52.00;42.50;;;;;13.61;56.23;100730.13;5024283;28;47208;-50
2022/09/30 08:59:10;;;;;;;;;45.25;38.25;;;;;13.73;56.08;100732.44;5042011;28;45340;-50
2022/09/30 09:01:43;;;;;;;;;47.25;39.00;;;;;13.83;56.08;100733.06;5043060;28;45253;-49
2022/09/30 09:04:09;;;;;;;;;42.25;36.50;;;;;13.97;55.73;100735.31;5074501;28;45402;-52
2022/09/30 09:06:39;;;;;;;;;44.50;35.50;;;;;14.08;55.60;100735.00;5053592;28;48229;-49
2022/09/30 09:09:42;;;;;;;;;44.25;36.50;;;;;14.22;55.90;100734.59;5040693;28;45404;-51
2022/09/30 09:12:36;;;;;;;;;39.25;32.75;;;;;14.34;55.81;100734.25;5049689;28;45422;-52
2022/09/30 09:15:13;;;;;;;;;36.25;32.25;;;;;14.46;55.67;100733.00;5057510;28;45457;-51
2022/09/30 09:17:47;;;;;;;;;43.50;36.25;;;;;14.61;55.19;100736.97;5074715;28;45322;-50
2022/09/30 09:20:20;;;;;;;;;44.00;36.25;;;;;14.73;55.72;100730.44;5042046;28;45435;-50
2022/09/30 09:22:49;;;;;;;;;43.75;36.00;;;;;14.85;55.06;100737.97;5052423;28;45176;-51
2022/09/30 09:25:18;;;;;;;;;48.25;37.25;;;;;14.99;55.20;100739.34;5050693;28;45249;-51
2022/09/30 09:28:05;;;;;;;;;45.75;37.25;;;;;15.13;55.36;100741.53;5061270;28;45331;-52
2022/09/30 09:30:46;;;;;;;;;51.00;42.00;;;;;15.28;55.11;100741.00;5061921;28;45315;-50
2022/09/30 09:33:21;;;;;;;;;42.75;37.75;;;;;15.43;55.28;100755.50;5062110;28;45450;-51
2022/09/30 09:35:59;;;;;;;;;40.75;36.00;;;;;15.55;54.94;100759.53;5061884;28;45336;-51
2022/09/30 09:38:36;;;;;;;;;42.00;37.00;;;;;15.71;55.12;100759.84;5061677;28;46136;-52
2022/09/30 09:41:19;;;;;;;;;45.25;36.25;;;;;15.84;54.91;100769.13;5055702;28;45769;-53
2022/09/30 09:44:03;;;;;;;;;35.50;33.25;;;;;15.97;54.63;100766.88;5042728;28;45221;-53
2022/09/30 09:46:48;;;;;;;;;36.50;33.75;;;;;16.15;54.41;100772.44;5061643;28;45461;-48
2022/09/30 09:49:19;;;;;;;;;36.25;32.25;;;;;16.27;54.46;100773.78;5061485;28;45247;-49
2022/09/30 09:52:04;;;;;;;;;37.50;33.25;;;;;16.38;54.19;100771.59;5061383;28;45423;-50
2022/09/30 09:54:33;;;;;;;;;36.00;32.75;;;;;16.50;54.37;100770.25;5061772;28;45455;-51
2022/09/30 09:57:15;;;;;;;;;38.25;31.25;;;;;16.62;54.22;100751.19;5058107;28;45177;-51
2022/09/30 10:01:07;;;;;;;;;37.00;32.00;;;;;16.78;54.05;100764.75;5041270;28;46097;-52
2022/09/30 10:02:59;;;;;;;;;33.50;30.00;;;;;16.92;53.86;100761.56;5041151;28;45419;-48
2022/09/30 10:05:25;;;;;;;;;33.75;30.50;;;;;17.04;53.90;100761.06;5041196;28;45493;-52
2022/09/30 10:08:08;;;;;;;;;28.50;27.25;;;;;17.18;53.81;100763.16;5041337;28;45226;-49
2022/09/30 10:10:51;;;;;;;;;27.75;26.50;;;;;17.30;53.54;100753.78;5041303;28;45994;-52
2022/09/30 10:13:18;;;;;;;;;27.00;26.25;;;;;17.41;53.53;100753.34;5022720;28;46345;-52
2022/09/30 10:15:44;;;;;;;;;30.00;24.00;;;;;17.52;53.40;100755.53;5060598;28;45368;-50
2022/09/30 10:18:18;;;;;;;;;23.50;22.00;;;;;17.67;53.08;100762.84;5042970;28;45323;-48
2022/09/30 10:20:50;;;;;;;;;16.50;15.75;;;;;17.76;53.20;100758.94;5049630;28;45265;-48
2022/09/30 10:23:20;;;;;;;;;20.75;19.50;;;;;17.92;52.74;100767.06;5051074;28;45346;-51
2022/09/30 10:26:02;;;;;;;;;20.25;18.50;;;;;18.05;52.80;100762.13;5041207;28;45162;-51
2022/09/30 10:28:31;;;;;;;;;17.00;17.00;;;;;18.17;52.45;100758.03;5049082;28;45412;-47
2022/09/30 10:31:01;;;;;;;;;18.25;17.25;;;;;18.25;52.90;100761.22;5060659;28;47026;-52
2022/09/30 10:33:32;;;;;;;;;19.00;18.75;;;;;18.37;52.02;100757.13;5060793;28;45417;-51
2022/09/30 10:36:11;;;;;;;;;22.50;22.25;;;;;18.51;52.07;100753.81;5059984;28;45356;-50
2022/09/30 10:38:46;;;;;;;;;21.00;18.50;;;;;18.65;52.08;100755.81;5060710;28;45285;-50
2022/09/30 10:41:12;;;;;;;;;16.75;11.00;;;;;18.77;51.75;100752.56;5060337;28;45403;-54
2022/09/30 10:43:48;;;;;;;;;16.00;15.25;;;;;18.88;51.50;100756.50;5060523;28;45252;-52
2022/09/30 10:46:22;;;;;;;;;14.75;14.75;;;;;19.06;51.28;100755.63;5060894;28;45233;-51
2022/09/30 10:48:50;;;;;;;;;18.50;17.75;;;;;19.19;51.20;100757.69;5057569;28;45237;-50
2022/09/30 10:51:24;;;;;;;;;17.25;17.00;;;;;19.27;50.67;100760.81;5040452;28;45266;-49
2022/09/30 10:53:50;;;;;;;;;12.00;12.00;;;;;19.38;51.02;100758.47;5040537;28;45313;-48
2022/09/30 10:56:36;;;;;;;;;15.25;14.75;;;;;19.54;50.49;100771.03;5040614;28;45228;-49
2022/09/30 10:59:03;;;;;;;;;18.00;15.25;;;;;19.67;50.26;100757.91;5047939;28;45238;-49
2022/09/30 11:01:54;;;;;;;;;15.75;15.50;;;;;19.81;50.66;100756.25;5045472;28;45533;-50
2022/09/30 11:04:33;;;;;;;;;14.25;14.25;;;;;19.93;50.28;100754.75;5049962;28;45238;-49
2022/09/30 11:07:26;;;;;;;;;17.00;16.00;;;;;20.14;50.02;100762.56;5042156;28;45363;-51
2022/09/30 11:10:16;;;;;;;;;14.75;14.25;;;;;20.36;50.64;100756.91;5040107;28;45271;-50
2022/09/30 11:12:55;;;;;;;;;16.75;14.50;;;;;20.61;50.02;100752.88;5001426;28;47300;-48
2022/09/30 11:15:24;;;;;;;;;16.50;15.25;;;;;20.84;50.20;100751.63;5056373;28;45337;-49
2022/09/30 11:17:49;;;;;;;;;16.00;14.75;;;;;21.06;50.03;100750.38;5045986;28;45294;-52
2022/09/30 11:20:31;;;;;;;;;10.00;10.00;;;;;21.31;49.86;100760.50;5040173;28;45453;-49
2022/09/30 11:23:12;;;;;;;;;17.00;15.75;;;;;21.54;49.92;100755.59;5050623;28;45284;-51
2022/09/30 11:25:52;;;;;;;;;17.25;15.75;;;;;21.81;49.81;100761.13;5022030;28;45280;-49
2022/09/30 11:28:45;;;;;;;;;14.25;14.25;;;;;22.07;49.15;100758.63;5039729;28;45419;-51
2022/09/30 11:31:34;;;;;;;;;14.25;14.00;;;;;22.35;48.53;100755.09;5039723;28;45321;-51